sensor_id;sensor_type;location;lat;lon;timestamp;P1;durP1;ratioP1;P2;durP2;ratioP2
84379;SDS011;74571;52.514;13.468;2024-02-28T00:00:33;11.23;;;5.67;;
84379;SDS011;74571;52.514;13.468;2024-02-28T00:02:58;11.33;;;6.23;;
84379;SDS011;74571;52.514;13.468;2024-02-28T00:05:23;14.33;;;6.57;;
84379;SDS011;74571;52.514;13.468;2024-02-28T00:07:49;12.77;;;5.50;;
84379;SDS011;74571;52.514;13.468;2024-02-28T00:10:14;10.63;;;5.63;;
84379;SDS011;74571;52.514;13.468;2024-02-28T00:12:39;11.67;;;6.00;;
84379;SDS011;74571;52.514;13.468;2024-02-28T00:15:05;12.02;;;5.93;;
84379;SDS011;74571;52.514;13.468;2024-02-28T00:17:35;12.80;;;5.78;;
84379;SDS011;74571;52.514;13.468;2024-02-28T00:20:00;11.35;;;5.72;;
84379;SDS011;74571;52.514;13.468;2024-02-28T00:22:26;8.97;;;4.70;;
84379;SDS011;74571;52.514;13.468;2024-02-28T00:24:51;13.53;;;5.70;;
84379;SDS011;74571;52.514;13.468;2024-02-28T00:27:16;10.30;;;4.97;;
84379;SDS011;74571;52.514;13.468;2024-02-28T00:29:42;11.25;;;5.75;;
84379;SDS011;74571;52.514;13.468;2024-02-28T00:32:07;10.10;;;5.20;;
84379;SDS011;74571;52.514;13.468;2024-02-28T00:34:32;10.60;;;5.10;;
84379;SDS011;74571;52.514;13.468;2024-02-28T00:36:57;9.43;;;5.03;;
84379;SDS011;74571;52.514;13.468;2024-02-28T00:39:23;9.60;;;5.10;;
84379;SDS011;74571;52.514;13.468;2024-02-28T00:41:48;9.90;;;4.93;;
84379;SDS011;74571;52.514;13.468;2024-02-28T00:44:13;10.17;;;5.50;;
84379;SDS011;74571;52.514;13.468;2024-02-28T00:46:39;11.27;;;5.70;;
84379;SDS011;74571;52.514;13.468;2024-02-28T00:49:04;11.18;;;5.15;;
84379;SDS011;74571;52.514;13.468;2024-02-28T00:51:30;11.30;;;6.07;;
84379;SDS011;74571;52.514;13.468;2024-02-28T00:53:55;12.00;;;5.60;;
84379;SDS011;74571;52.514;13.468;2024-02-28T00:56:21;12.10;;;5.82;;
84379;SDS011;74571;52.514;13.468;2024-02-28T00:58:46;9.83;;;5.17;;
84379;SDS011;74571;52.514;13.468;2024-02-28T01:01:11;13.33;;;5.57;;
84379;SDS011;74571;52.514;13.468;2024-02-28T01:03:37;10.87;;;5.23;;
84379;SDS011;74571;52.514;13.468;2024-02-28T01:06:02;9.00;;;4.90;;
84379;SDS011;74571;52.514;13.468;2024-02-28T01:08:29;10.85;;;5.63;;
84379;SDS011;74571;52.514;13.468;2024-02-28T01:10:54;11.98;;;5.88;;
84379;SDS011;74571;52.514;13.468;2024-02-28T01:13:19;10.57;;;5.70;;
84379;SDS011;74571;52.514;13.468;2024-02-28T01:15:45;10.60;;;4.15;;
84379;SDS011;74571;52.514;13.468;2024-02-28T01:18:11;10.23;;;5.87;;
84379;SDS011;74571;52.514;13.468;2024-02-28T01:20:36;9.03;;;5.23;;
84379;SDS011;74571;52.514;13.468;2024-02-28T01:23:02;10.45;;;5.53;;
84379;SDS011;74571;52.514;13.468;2024-02-28T01:25:27;8.23;;;4.53;;
84379;SDS011;74571;52.514;13.468;2024-02-28T01:27:52;8.33;;;4.60;;
84379;SDS011;74571;52.514;13.468;2024-02-28T01:30:17;10.00;;;5.20;;
84379;SDS011;74571;52.514;13.468;2024-02-28T01:32:43;9.73;;;4.88;;
84379;SDS011;74571;52.514;13.468;2024-02-28T01:35:09;8.53;;;4.70;;
84379;SDS011;74571;52.514;13.468;2024-02-28T01:37:34;9.47;;;4.73;;
84379;SDS011;74571;52.514;13.468;2024-02-28T01:39:59;9.77;;;5.30;;
84379;SDS011;74571;52.514;13.468;2024-02-28T01:42:24;10.17;;;5.07;;
84379;SDS011;74571;52.514;13.468;2024-02-28T01:44:50;8.73;;;4.43;;
84379;SDS011;74571;52.514;13.468;2024-02-28T01:47:15;8.47;;;4.53;;
84379;SDS011;74571;52.514;13.468;2024-02-28T01:49:41;8.57;;;4.57;;
84379;SDS011;74571;52.514;13.468;2024-02-28T01:52:07;10.25;;;4.82;;
84379;SDS011;74571;52.514;13.468;2024-02-28T01:54:34;9.05;;;5.20;;
84379;SDS011;74571;52.514;13.468;2024-02-28T01:57:00;8.07;;;4.65;;
84379;SDS011;74571;52.514;13.468;2024-02-28T01:59:26;8.68;;;4.65;;
84379;SDS011;74571;52.514;13.468;2024-02-28T02:01:52;7.63;;;3.70;;
84379;SDS011;74571;52.514;13.468;2024-02-28T02:04:18;7.20;;;4.30;;
84379;SDS011;74571;52.514;13.468;2024-02-28T02:06:43;6.63;;;3.83;;
84379;SDS011;74571;52.514;13.468;2024-02-28T02:09:10;9.55;;;4.55;;
84379;SDS011;74571;52.514;13.468;2024-02-28T02:11:36;8.10;;;4.47;;
84379;SDS011;74571;52.514;13.468;2024-02-28T02:14:03;5.40;;;3.30;;
84379;SDS011;74571;52.514;13.468;2024-02-28T02:16:28;10.27;;;4.30;;
84379;SDS011;74571;52.514;13.468;2024-02-28T02:18:55;7.72;;;4.20;;
84379;SDS011;74571;52.514;13.468;2024-02-28T02:21:22;6.90;;;3.65;;
84379;SDS011;74571;52.514;13.468;2024-02-28T02:23:51;6.10;;;3.80;;
84379;SDS011;74571;52.514;13.468;2024-02-28T02:26:17;9.90;;;4.43;;
84379;SDS011;74571;52.514;13.468;2024-02-28T02:28:42;7.90;;;3.90;;
84379;SDS011;74571;52.514;13.468;2024-02-28T02:31:08;7.63;;;4.20;;
84379;SDS011;74571;52.514;13.468;2024-02-28T02:33:33;6.55;;;3.75;;
84379;SDS011;74571;52.514;13.468;2024-02-28T02:35:58;6.20;;;3.67;;
84379;SDS011;74571;52.514;13.468;2024-02-28T02:38:24;6.87;;;3.70;;
84379;SDS011;74571;52.514;13.468;2024-02-28T02:40:49;7.30;;;4.00;;
84379;SDS011;74571;52.514;13.468;2024-02-28T02:43:15;8.38;;;4.70;;
84379;SDS011;74571;52.514;13.468;2024-02-28T02:45:41;7.13;;;4.15;;
84379;SDS011;74571;52.514;13.468;2024-02-28T02:48:08;6.78;;;3.85;;
84379;SDS011;74571;52.514;13.468;2024-02-28T02:50:33;8.07;;;4.63;;
84379;SDS011;74571;52.514;13.468;2024-02-28T02:52:58;8.30;;;4.27;;
84379;SDS011;74571;52.514;13.468;2024-02-28T02:55:23;7.47;;;3.90;;
84379;SDS011;74571;52.514;13.468;2024-02-28T02:57:49;7.40;;;4.10;;
84379;SDS011;74571;52.514;13.468;2024-02-28T03:00:14;9.70;;;4.53;;
84379;SDS011;74571;52.514;13.468;2024-02-28T03:02:39;6.28;;;3.45;;
84379;SDS011;74571;52.514;13.468;2024-02-28T03:05:05;8.23;;;4.28;;
84379;SDS011;74571;52.514;13.468;2024-02-28T03:07:30;7.28;;;4.30;;
84379;SDS011;74571;52.514;13.468;2024-02-28T03:09:56;6.63;;;3.33;;
84379;SDS011;74571;52.514;13.468;2024-02-28T03:12:21;5.90;;;3.73;;
84379;SDS011;74571;52.514;13.468;2024-02-28T03:14:46;6.97;;;3.72;;
84379;SDS011;74571;52.514;13.468;2024-02-28T03:17:12;5.22;;;3.42;;
84379;SDS011;74571;52.514;13.468;2024-02-28T03:19:38;5.23;;;3.30;;
84379;SDS011;74571;52.514;13.468;2024-02-28T03:22:03;5.53;;;3.30;;
84379;SDS011;74571;52.514;13.468;2024-02-28T03:24:29;8.07;;;3.90;;
84379;SDS011;74571;52.514;13.468;2024-02-28T03:26:54;7.57;;;4.10;;
84379;SDS011;74571;52.514;13.468;2024-02-28T03:29:19;4.67;;;3.10;;
84379;SDS011;74571;52.514;13.468;2024-02-28T03:31:44;6.70;;;3.63;;
84379;SDS011;74571;52.514;13.468;2024-02-28T03:34:10;6.93;;;3.17;;
84379;SDS011;74571;52.514;13.468;2024-02-28T03:36:35;4.67;;;3.00;;
84379;SDS011;74571;52.514;13.468;2024-02-28T03:39:00;6.53;;;3.57;;
84379;SDS011;74571;52.514;13.468;2024-02-28T03:41:25;5.57;;;3.30;;
84379;SDS011;74571;52.514;13.468;2024-02-28T03:43:53;5.97;;;3.30;;
84379;SDS011;74571;52.514;13.468;2024-02-28T03:46:18;5.27;;;3.10;;
84379;SDS011;74571;52.514;13.468;2024-02-28T03:48:43;5.70;;;3.33;;
84379;SDS011;74571;52.514;13.468;2024-02-28T03:51:09;4.60;;;3.10;;
84379;SDS011;74571;52.514;13.468;2024-02-28T03:53:34;4.53;;;2.77;;
84379;SDS011;74571;52.514;13.468;2024-02-28T03:55:59;5.13;;;2.90;;
84379;SDS011;74571;52.514;13.468;2024-02-28T03:58:24;5.10;;;3.10;;
84379;SDS011;74571;52.514;13.468;2024-02-28T04:00:50;4.30;;;2.77;;
84379;SDS011;74571;52.514;13.468;2024-02-28T04:03:15;5.93;;;2.67;;
84379;SDS011;74571;52.514;13.468;2024-02-28T04:05:40;4.00;;;3.00;;
84379;SDS011;74571;52.514;13.468;2024-02-28T04:08:06;5.63;;;3.67;;
84379;SDS011;74571;52.514;13.468;2024-02-28T04:10:31;5.40;;;3.07;;
84379;SDS011;74571;52.514;13.468;2024-02-28T04:12:56;5.13;;;2.47;;
84379;SDS011;74571;52.514;13.468;2024-02-28T04:15:22;5.80;;;2.73;;
84379;SDS011;74571;52.514;13.468;2024-02-28T04:17:47;5.13;;;3.10;;
84379;SDS011;74571;52.514;13.468;2024-02-28T04:20:12;4.03;;;2.60;;
84379;SDS011;74571;52.514;13.468;2024-02-28T04:22:38;4.15;;;2.65;;
84379;SDS011;74571;52.514;13.468;2024-02-28T04:25:04;4.17;;;2.73;;
84379;SDS011;74571;52.514;13.468;2024-02-28T04:27:30;5.90;;;2.92;;
84379;SDS011;74571;52.514;13.468;2024-02-28T04:29:56;3.73;;;2.20;;
84379;SDS011;74571;52.514;13.468;2024-02-28T04:32:21;4.10;;;2.67;;
84379;SDS011;74571;52.514;13.468;2024-02-28T04:34:46;4.20;;;2.40;;
84379;SDS011;74571;52.514;13.468;2024-02-28T04:37:11;3.50;;;2.40;;
84379;SDS011;74571;52.514;13.468;2024-02-28T04:39:37;3.30;;;2.20;;
84379;SDS011;74571;52.514;13.468;2024-02-28T04:42:02;3.17;;;2.30;;
84379;SDS011;74571;52.514;13.468;2024-02-28T04:44:27;3.60;;;2.40;;
84379;SDS011;74571;52.514;13.468;2024-02-28T04:46:52;3.60;;;2.40;;
84379;SDS011;74571;52.514;13.468;2024-02-28T04:49:18;3.77;;;2.50;;
84379;SDS011;74571;52.514;13.468;2024-02-28T04:51:43;3.83;;;2.57;;
84379;SDS011;74571;52.514;13.468;2024-02-28T04:54:08;4.13;;;2.50;;
84379;SDS011;74571;52.514;13.468;2024-02-28T04:56:38;4.17;;;2.60;;
84379;SDS011;74571;52.514;13.468;2024-02-28T04:59:04;3.45;;;2.22;;
84379;SDS011;74571;52.514;13.468;2024-02-28T05:01:29;4.13;;;2.37;;
84379;SDS011;74571;52.514;13.468;2024-02-28T05:03:56;3.97;;;2.38;;
84379;SDS011;74571;52.514;13.468;2024-02-28T05:06:21;3.40;;;2.47;;
84379;SDS011;74571;52.514;13.468;2024-02-28T05:08:46;3.63;;;2.50;;
84379;SDS011;74571;52.514;13.468;2024-02-28T05:11:11;3.53;;;2.43;;
84379;SDS011;74571;52.514;13.468;2024-02-28T05:13:37;3.23;;;2.33;;
84379;SDS011;74571;52.514;13.468;2024-02-28T05:16:02;4.87;;;2.90;;
84379;SDS011;74571;52.514;13.468;2024-02-28T05:18:27;3.92;;;2.65;;
84379;SDS011;74571;52.514;13.468;2024-02-28T05:20:53;4.80;;;2.80;;
84379;SDS011;74571;52.514;13.468;2024-02-28T05:23:18;3.63;;;2.50;;
84379;SDS011;74571;52.514;13.468;2024-02-28T05:25:43;4.20;;;2.60;;
84379;SDS011;74571;52.514;13.468;2024-02-28T05:28:08;5.10;;;2.90;;
84379;SDS011;74571;52.514;13.468;2024-02-28T05:30:33;4.43;;;2.93;;
84379;SDS011;74571;52.514;13.468;2024-02-28T05:32:59;4.70;;;2.77;;
84379;SDS011;74571;52.514;13.468;2024-02-28T05:35:24;4.70;;;3.23;;
84379;SDS011;74571;52.514;13.468;2024-02-28T05:37:53;5.10;;;3.03;;
84379;SDS011;74571;52.514;13.468;2024-02-28T05:40:19;5.72;;;3.13;;
84379;SDS011;74571;52.514;13.468;2024-02-28T05:42:45;6.10;;;3.20;;
84379;SDS011;74571;52.514;13.468;2024-02-28T05:45:10;5.17;;;3.17;;
84379;SDS011;74571;52.514;13.468;2024-02-28T05:47:35;5.73;;;3.00;;
84379;SDS011;74571;52.514;13.468;2024-02-28T05:50:01;5.33;;;3.00;;
84379;SDS011;74571;52.514;13.468;2024-02-28T05:52:26;3.87;;;2.97;;
84379;SDS011;74571;52.514;13.468;2024-02-28T05:54:52;5.20;;;2.95;;
84379;SDS011;74571;52.514;13.468;2024-02-28T05:57:17;4.60;;;3.07;;
84379;SDS011;74571;52.514;13.468;2024-02-28T05:59:42;4.23;;;2.93;;
84379;SDS011;74571;52.514;13.468;2024-02-28T06:02:08;5.63;;;3.03;;
84379;SDS011;74571;52.514;13.468;2024-02-28T06:04:33;5.53;;;3.03;;
84379;SDS011;74571;52.514;13.468;2024-02-28T06:06:58;3.60;;;2.40;;
84379;SDS011;74571;52.514;13.468;2024-02-28T06:09:24;5.35;;;3.03;;
84379;SDS011;74571;52.514;13.468;2024-02-28T06:11:49;3.93;;;2.60;;
84379;SDS011;74571;52.514;13.468;2024-02-28T06:14:14;5.40;;;2.80;;
84379;SDS011;74571;52.514;13.468;2024-02-28T06:16:39;5.00;;;3.00;;
84379;SDS011;74571;52.514;13.468;2024-02-28T06:19:05;4.53;;;2.97;;
84379;SDS011;74571;52.514;13.468;2024-02-28T06:21:30;4.70;;;2.87;;
84379;SDS011;74571;52.514;13.468;2024-02-28T06:23:55;4.07;;;2.43;;
84379;SDS011;74571;52.514;13.468;2024-02-28T06:26:20;4.17;;;2.97;;
84379;SDS011;74571;52.514;13.468;2024-02-28T06:28:46;3.30;;;2.60;;
84379;SDS011;74571;52.514;13.468;2024-02-28T06:31:12;4.20;;;2.83;;
84379;SDS011;74571;52.514;13.468;2024-02-28T06:33:41;3.90;;;2.40;;
84379;SDS011;74571;52.514;13.468;2024-02-28T06:36:06;4.72;;;2.67;;
84379;SDS011;74571;52.514;13.468;2024-02-28T06:38:32;4.43;;;3.03;;
84379;SDS011;74571;52.514;13.468;2024-02-28T06:40:57;5.67;;;3.10;;
84379;SDS011;74571;52.514;13.468;2024-02-28T06:43:22;4.87;;;2.97;;
84379;SDS011;74571;52.514;13.468;2024-02-28T06:45:47;4.80;;;2.93;;
84379;SDS011;74571;52.514;13.468;2024-02-28T06:48:13;5.73;;;3.40;;
84379;SDS011;74571;52.514;13.468;2024-02-28T06:50:38;5.73;;;3.53;;
84379;SDS011;74571;52.514;13.468;2024-02-28T06:53:03;5.70;;;3.27;;
84379;SDS011;74571;52.514;13.468;2024-02-28T06:55:29;5.28;;;2.90;;
84379;SDS011;74571;52.514;13.468;2024-02-28T06:57:54;4.63;;;3.40;;
84379;SDS011;74571;52.514;13.468;2024-02-28T07:00:19;4.77;;;3.47;;
84379;SDS011;74571;52.514;13.468;2024-02-28T07:02:44;5.13;;;3.27;;
84379;SDS011;74571;52.514;13.468;2024-02-28T07:05:10;6.78;;;3.80;;
84379;SDS011;74571;52.514;13.468;2024-02-28T07:07:35;5.97;;;3.22;;
84379;SDS011;74571;52.514;13.468;2024-02-28T07:10:04;7.50;;;3.72;;
84379;SDS011;74571;52.514;13.468;2024-02-28T07:12:30;5.50;;;3.90;;
84379;SDS011;74571;52.514;13.468;2024-02-28T07:14:55;6.80;;;4.17;;
84379;SDS011;74571;52.514;13.468;2024-02-28T07:17:20;8.43;;;4.00;;
84379;SDS011;74571;52.514;13.468;2024-02-28T07:19:46;6.68;;;3.70;;
84379;SDS011;74571;52.514;13.468;2024-02-28T07:22:11;7.10;;;3.70;;
84379;SDS011;74571;52.514;13.468;2024-02-28T07:24:36;7.20;;;3.83;;
84379;SDS011;74571;52.514;13.468;2024-02-28T07:27:02;7.28;;;3.92;;
84379;SDS011;74571;52.514;13.468;2024-02-28T07:29:27;5.88;;;3.97;;
84379;SDS011;74571;52.514;13.468;2024-02-28T07:31:53;6.50;;;3.73;;
84379;SDS011;74571;52.514;13.468;2024-02-28T07:34:18;5.67;;;3.73;;
84379;SDS011;74571;52.514;13.468;2024-02-28T07:36:43;6.57;;;3.83;;
84379;SDS011;74571;52.514;13.468;2024-02-28T07:39:08;8.13;;;4.10;;
84379;SDS011;74571;52.514;13.468;2024-02-28T07:41:37;8.40;;;4.30;;
84379;SDS011;74571;52.514;13.468;2024-02-28T07:44:06;6.88;;;4.30;;
84379;SDS011;74571;52.514;13.468;2024-02-28T07:46:32;5.18;;;3.35;;
84379;SDS011;74571;52.514;13.468;2024-02-28T07:48:58;7.13;;;3.72;;
84379;SDS011;74571;52.514;13.468;2024-02-28T07:51:23;6.33;;;3.50;;
84379;SDS011;74571;52.514;13.468;2024-02-28T07:53:48;5.87;;;3.63;;
84379;SDS011;74571;52.514;13.468;2024-02-28T07:56:17;8.27;;;4.73;;
84379;SDS011;74571;52.514;13.468;2024-02-28T07:58:43;7.65;;;4.38;;
84379;SDS011;74571;52.514;13.468;2024-02-28T08:01:10;12.73;;;7.20;;
84379;SDS011;74571;52.514;13.468;2024-02-28T08:03:44;7.90;;;4.72;;
84379;SDS011;74571;52.514;13.468;2024-02-28T08:06:10;6.80;;;3.60;;
84379;SDS011;74571;52.514;13.468;2024-02-28T08:08:53;6.63;;;4.43;;
84379;SDS011;74571;52.514;13.468;2024-02-28T08:11:18;5.37;;;3.53;;
84379;SDS011;74571;52.514;13.468;2024-02-28T08:13:44;5.07;;;3.77;;
84379;SDS011;74571;52.514;13.468;2024-02-28T08:16:09;7.47;;;4.20;;
84379;SDS011;74571;52.514;13.468;2024-02-28T08:18:35;7.35;;;4.03;;
84379;SDS011;74571;52.514;13.468;2024-02-28T08:21:00;4.50;;;3.23;;
84379;SDS011;74571;52.514;13.468;2024-02-28T08:23:27;6.38;;;3.60;;
84379;SDS011;74571;52.514;13.468;2024-02-28T08:25:52;5.90;;;3.88;;
84379;SDS011;74571;52.514;13.468;2024-02-28T08:28:18;5.15;;;3.33;;
84379;SDS011;74571;52.514;13.468;2024-02-28T08:30:43;5.63;;;3.50;;
84379;SDS011;74571;52.514;13.468;2024-02-28T08:33:08;4.97;;;3.30;;
84379;SDS011;74571;52.514;13.468;2024-02-28T08:35:35;6.68;;;3.80;;
84379;SDS011;74571;52.514;13.468;2024-02-28T08:38:00;6.50;;;4.00;;
84379;SDS011;74571;52.514;13.468;2024-02-28T08:40:28;7.13;;;4.65;;
84379;SDS011;74571;52.514;13.468;2024-02-28T08:42:53;8.43;;;5.00;;
84379;SDS011;74571;52.514;13.468;2024-02-28T08:45:19;9.25;;;5.10;;
84379;SDS011;74571;52.514;13.468;2024-02-28T08:47:44;8.90;;;5.63;;
84379;SDS011;74571;52.514;13.468;2024-02-28T08:50:10;8.17;;;4.80;;
84379;SDS011;74571;52.514;13.468;2024-02-28T08:52:35;5.90;;;4.20;;
84379;SDS011;74571;52.514;13.468;2024-02-28T08:55:01;6.07;;;3.80;;
84379;SDS011;74571;52.514;13.468;2024-02-28T08:57:26;6.67;;;4.00;;
84379;SDS011;74571;52.514;13.468;2024-02-28T08:59:52;6.55;;;4.00;;
84379;SDS011;74571;52.514;13.468;2024-02-28T09:02:18;4.93;;;3.33;;
84379;SDS011;74571;52.514;13.468;2024-02-28T09:04:43;6.03;;;3.77;;
84379;SDS011;74571;52.514;13.468;2024-02-28T09:07:08;7.03;;;4.00;;
84379;SDS011;74571;52.514;13.468;2024-02-28T09:09:33;5.40;;;3.67;;
84379;SDS011;74571;52.514;13.468;2024-02-28T09:12:02;6.47;;;4.00;;
84379;SDS011;74571;52.514;13.468;2024-02-28T09:14:28;7.40;;;4.10;;
84379;SDS011;74571;52.514;13.468;2024-02-28T09:16:53;7.00;;;4.63;;
84379;SDS011;74571;52.514;13.468;2024-02-28T09:19:21;7.80;;;4.45;;
84379;SDS011;74571;52.514;13.468;2024-02-28T09:21:46;7.37;;;4.67;;
84379;SDS011;74571;52.514;13.468;2024-02-28T09:24:12;7.28;;;4.57;;
84379;SDS011;74571;52.514;13.468;2024-02-28T09:26:38;9.40;;;4.80;;
84379;SDS011;74571;52.514;13.468;2024-02-28T09:29:04;8.98;;;5.57;;
84379;SDS011;74571;52.514;13.468;2024-02-28T09:31:29;8.03;;;5.07;;
84379;SDS011;74571;52.514;13.468;2024-02-28T09:33:55;8.83;;;4.87;;
84379;SDS011;74571;52.514;13.468;2024-02-28T09:36:23;8.20;;;5.00;;
84379;SDS011;74571;52.514;13.468;2024-02-28T09:38:48;8.93;;;4.97;;
84379;SDS011;74571;52.514;13.468;2024-02-28T09:41:16;10.73;;;5.90;;
84379;SDS011;74571;52.514;13.468;2024-02-28T09:43:42;11.02;;;5.45;;
84379;SDS011;74571;52.514;13.468;2024-02-28T09:46:08;10.97;;;5.53;;
84379;SDS011;74571;52.514;13.468;2024-02-28T09:48:40;8.82;;;5.45;;
84379;SDS011;74571;52.514;13.468;2024-02-28T09:51:06;9.27;;;5.63;;
84379;SDS011;74571;52.514;13.468;2024-02-28T09:53:33;8.55;;;5.38;;
84379;SDS011;74571;52.514;13.468;2024-02-28T09:55:58;9.37;;;5.60;;
84379;SDS011;74571;52.514;13.468;2024-02-28T09:58:23;9.10;;;5.93;;
84379;SDS011;74571;52.514;13.468;2024-02-28T10:00:50;9.77;;;5.85;;
84379;SDS011;74571;52.514;13.468;2024-02-28T10:03:18;9.95;;;5.90;;
84379;SDS011;74571;52.514;13.468;2024-02-28T10:05:47;11.23;;;6.15;;
84379;SDS011;74571;52.514;13.468;2024-02-28T10:08:13;9.77;;;5.72;;
84379;SDS011;74571;52.514;13.468;2024-02-28T10:10:44;8.60;;;4.97;;
84379;SDS011;74571;52.514;13.468;2024-02-28T10:13:13;12.32;;;5.78;;
84379;SDS011;74571;52.514;13.468;2024-02-28T10:15:40;11.15;;;5.93;;
84379;SDS011;74571;52.514;13.468;2024-02-28T10:18:05;12.13;;;5.97;;
84379;SDS011;74571;52.514;13.468;2024-02-28T10:20:31;10.52;;;5.55;;
84379;SDS011;74571;52.514;13.468;2024-02-28T10:22:56;8.37;;;4.77;;
84379;SDS011;74571;52.514;13.468;2024-02-28T10:25:22;11.83;;;5.63;;
84379;SDS011;74571;52.514;13.468;2024-02-28T10:27:47;9.43;;;5.67;;
84379;SDS011;74571;52.514;13.468;2024-02-28T10:30:13;8.38;;;4.82;;
84379;SDS011;74571;52.514;13.468;2024-02-28T10:32:47;10.65;;;4.75;;
84379;SDS011;74571;52.514;13.468;2024-02-28T10:35:19;7.38;;;4.47;;
84379;SDS011;74571;52.514;13.468;2024-02-28T10:37:45;7.97;;;4.68;;
84379;SDS011;74571;52.514;13.468;2024-02-28T10:40:12;7.82;;;4.38;;
84379;SDS011;74571;52.514;13.468;2024-02-28T10:42:38;8.70;;;4.78;;
84379;SDS011;74571;52.514;13.468;2024-02-28T10:45:07;10.60;;;5.50;;
84379;SDS011;74571;52.514;13.468;2024-02-28T10:47:35;9.25;;;5.05;;
84379;SDS011;74571;52.514;13.468;2024-02-28T10:50:03;7.97;;;4.85;;
84379;SDS011;74571;52.514;13.468;2024-02-28T10:52:28;6.90;;;4.72;;
84379;SDS011;74571;52.514;13.468;2024-02-28T10:54:58;9.20;;;5.03;;
84379;SDS011;74571;52.514;13.468;2024-02-28T10:57:25;9.07;;;5.22;;
84379;SDS011;74571;52.514;13.468;2024-02-28T10:59:51;8.80;;;5.18;;
84379;SDS011;74571;52.514;13.468;2024-02-28T11:02:17;8.75;;;4.72;;
84379;SDS011;74571;52.514;13.468;2024-02-28T11:04:42;7.73;;;4.67;;
84379;SDS011;74571;52.514;13.468;2024-02-28T11:07:08;11.55;;;5.28;;
84379;SDS011;74571;52.514;13.468;2024-02-28T11:09:33;9.33;;;5.80;;
84379;SDS011;74571;52.514;13.468;2024-02-28T11:11:59;9.45;;;5.20;;
84379;SDS011;74571;52.514;13.468;2024-02-28T11:14:24;9.00;;;5.43;;
84379;SDS011;74571;52.514;13.468;2024-02-28T11:17:03;9.90;;;5.03;;
84379;SDS011;74571;52.514;13.468;2024-02-28T11:19:30;11.48;;;5.60;;
84379;SDS011;74571;52.514;13.468;2024-02-28T11:21:56;9.70;;;5.30;;
84379;SDS011;74571;52.514;13.468;2024-02-28T11:24:23;9.57;;;5.68;;
84379;SDS011;74571;52.514;13.468;2024-02-28T11:26:50;8.95;;;5.43;;
84379;SDS011;74571;52.514;13.468;2024-02-28T11:29:16;9.05;;;5.15;;
84379;SDS011;74571;52.514;13.468;2024-02-28T11:31:46;9.52;;;5.53;;
84379;SDS011;74571;52.514;13.468;2024-02-28T11:34:11;8.40;;;5.57;;
84379;SDS011;74571;52.514;13.468;2024-02-28T11:36:36;9.10;;;5.57;;
84379;SDS011;74571;52.514;13.468;2024-02-28T11:39:02;10.18;;;5.20;;
84379;SDS011;74571;52.514;13.468;2024-02-28T11:41:28;9.07;;;5.22;;
84379;SDS011;74571;52.514;13.468;2024-02-28T11:43:53;7.60;;;5.07;;
84379;SDS011;74571;52.514;13.468;2024-02-28T11:46:18;7.90;;;4.93;;
84379;SDS011;74571;52.514;13.468;2024-02-28T11:48:44;9.47;;;4.53;;
84379;SDS011;74571;52.514;13.468;2024-02-28T11:51:10;8.32;;;5.35;;
84379;SDS011;74571;52.514;13.468;2024-02-28T11:53:35;10.33;;;5.30;;
84379;SDS011;74571;52.514;13.468;2024-02-28T11:56:00;8.73;;;5.30;;
84379;SDS011;74571;52.514;13.468;2024-02-28T11:58:26;10.23;;;5.25;;
84379;SDS011;74571;52.514;13.468;2024-02-28T12:00:51;10.03;;;5.67;;
84379;SDS011;74571;52.514;13.468;2024-02-28T12:03:20;8.43;;;5.25;;
84379;SDS011;74571;52.514;13.468;2024-02-28T12:05:47;8.40;;;5.22;;
84379;SDS011;74571;52.514;13.468;2024-02-28T12:08:12;5.97;;;4.00;;
84379;SDS011;74571;52.514;13.468;2024-02-28T12:10:37;7.27;;;4.87;;
84379;SDS011;74571;52.514;13.468;2024-02-28T12:13:03;10.10;;;5.47;;
84379;SDS011;74571;52.514;13.468;2024-02-28T12:15:29;8.65;;;5.03;;
84379;SDS011;74571;52.514;13.468;2024-02-28T12:17:54;7.85;;;4.85;;
84379;SDS011;74571;52.514;13.468;2024-02-28T12:20:20;7.53;;;4.83;;
84379;SDS011;74571;52.514;13.468;2024-02-28T12:22:45;6.80;;;4.40;;
84379;SDS011;74571;52.514;13.468;2024-02-28T12:25:10;7.23;;;4.10;;
84379;SDS011;74571;52.514;13.468;2024-02-28T12:27:36;8.82;;;4.68;;
84379;SDS011;74571;52.514;13.468;2024-02-28T12:30:01;5.77;;;4.17;;
84379;SDS011;74571;52.514;13.468;2024-02-28T12:32:27;8.15;;;4.40;;
84379;SDS011;74571;52.514;13.468;2024-02-28T12:34:52;6.53;;;4.70;;
84379;SDS011;74571;52.514;13.468;2024-02-28T12:37:18;5.93;;;4.30;;
84379;SDS011;74571;52.514;13.468;2024-02-28T12:39:44;7.00;;;4.43;;
84379;SDS011;74571;52.514;13.468;2024-02-28T12:42:09;5.80;;;4.00;;
84379;SDS011;74571;52.514;13.468;2024-02-28T12:44:34;6.27;;;4.43;;
84379;SDS011;74571;52.514;13.468;2024-02-28T12:46:59;7.63;;;4.20;;
84379;SDS011;74571;52.514;13.468;2024-02-28T12:49:25;8.37;;;4.90;;
84379;SDS011;74571;52.514;13.468;2024-02-28T12:51:50;6.37;;;4.17;;
84379;SDS011;74571;52.514;13.468;2024-02-28T12:54:16;7.50;;;4.95;;
84379;SDS011;74571;52.514;13.468;2024-02-28T12:56:41;6.97;;;3.90;;
84379;SDS011;74571;52.514;13.468;2024-02-28T12:59:10;6.45;;;4.68;;
84379;SDS011;74571;52.514;13.468;2024-02-28T13:01:36;7.75;;;4.50;;
84379;SDS011;74571;52.514;13.468;2024-02-28T13:04:01;5.47;;;3.50;;
84379;SDS011;74571;52.514;13.468;2024-02-28T13:06:27;6.57;;;3.97;;
84379;SDS011;74571;52.514;13.468;2024-02-28T13:08:53;7.75;;;4.38;;
84379;SDS011;74571;52.514;13.468;2024-02-28T13:11:19;5.63;;;3.63;;
84379;SDS011;74571;52.514;13.468;2024-02-28T13:13:50;7.05;;;4.18;;
84379;SDS011;74571;52.514;13.468;2024-02-28T13:16:17;7.45;;;4.00;;
84379;SDS011;74571;52.514;13.468;2024-02-28T13:18:43;6.07;;;3.88;;
84379;SDS011;74571;52.514;13.468;2024-02-28T13:21:08;6.55;;;4.47;;
84379;SDS011;74571;52.514;13.468;2024-02-28T13:23:37;6.10;;;4.30;;
84379;SDS011;74571;52.514;13.468;2024-02-28T13:26:03;9.18;;;5.60;;
84379;SDS011;74571;52.514;13.468;2024-02-28T13:28:29;6.95;;;4.60;;
84379;SDS011;74571;52.514;13.468;2024-02-28T13:30:58;7.13;;;5.30;;
84379;SDS011;74571;52.514;13.468;2024-02-28T13:33:24;8.88;;;5.00;;
84379;SDS011;74571;52.514;13.468;2024-02-28T13:35:50;6.10;;;4.57;;
84379;SDS011;74571;52.514;13.468;2024-02-28T13:38:15;7.70;;;5.47;;
84379;SDS011;74571;52.514;13.468;2024-02-28T13:40:40;8.17;;;5.43;;
84379;SDS011;74571;52.514;13.468;2024-02-28T13:43:06;7.60;;;5.68;;
84379;SDS011;74571;52.514;13.468;2024-02-28T13:45:32;7.40;;;4.95;;
84379;SDS011;74571;52.514;13.468;2024-02-28T13:47:57;10.05;;;6.22;;
84379;SDS011;74571;52.514;13.468;2024-02-28T13:50:23;7.80;;;5.00;;
84379;SDS011;74571;52.514;13.468;2024-02-28T13:52:56;7.15;;;5.10;;
84379;SDS011;74571;52.514;13.468;2024-02-28T13:55:21;9.30;;;5.70;;
84379;SDS011;74571;52.514;13.468;2024-02-28T13:57:47;7.77;;;4.77;;
84379;SDS011;74571;52.514;13.468;2024-02-28T14:00:12;8.97;;;5.77;;
84379;SDS011;74571;52.514;13.468;2024-02-28T14:02:39;9.25;;;5.68;;
84379;SDS011;74571;52.514;13.468;2024-02-28T14:05:07;8.18;;;5.45;;
84379;SDS011;74571;52.514;13.468;2024-02-28T14:07:35;9.65;;;5.82;;
84379;SDS011;74571;52.514;13.468;2024-02-28T14:10:02;8.93;;;5.82;;
84379;SDS011;74571;52.514;13.468;2024-02-28T14:12:28;7.82;;;5.32;;
84379;SDS011;74571;52.514;13.468;2024-02-28T14:14:53;8.63;;;5.53;;
84379;SDS011;74571;52.514;13.468;2024-02-28T14:17:18;9.53;;;5.80;;
84379;SDS011;74571;52.514;13.468;2024-02-28T14:19:44;7.60;;;5.00;;
84379;SDS011;74571;52.514;13.468;2024-02-28T14:22:10;8.20;;;5.28;;
84379;SDS011;74571;52.514;13.468;2024-02-28T14:24:35;10.17;;;5.20;;